Time;durP1;ratioP1;P1;durP2;ratioP2;P2;SDS_P1;SDS_P2;PMS_P1;PMS_P2;Temp;Humidity;BMP_temperature;BMP_pressure;BME280_temperature;BME280_humidity;BME280_pressure;Samples;Min_cycle;Max_cycle;Signal;HPM_P1;HPM_P2
2023/06/22 00:00:20;;;;;;;7.95;5.60;;;;;19.40;101360.00;;;;10199744;29;20245;-76
2023/06/22 00:05:22;;;;;;;8.00;6.20;;;;;19.40;101364.00;;;;10210716;29;20250;-80
2023/06/22 00:10:24;;;;;;;7.07;5.45;;;;;19.40;101359.00;;;;10209099;29;20218;-81
2023/06/22 00:15:27;;;;;;;6.82;5.50;;;;;19.40;101357.00;;;;10209830;29;20248;-81
2023/06/22 00:20:29;;;;;;;7.63;5.82;;;;;19.30;101351.00;;;;10191054;29;20206;-81
2023/06/22 00:25:33;;;;;;;6.85;6.15;;;;;19.30;101355.00;;;;10211377;29;20233;-76
2023/06/22 00:30:36;;;;;;;7.07;6.38;;;;;19.30;101341.00;;;;10200113;29;20245;-77
2023/06/22 00:35:41;;;;;;;6.50;5.75;;;;;19.30;101331.00;;;;10204997;29;20554;-75
2023/06/22 00:40:43;;;;;;;8.63;6.22;;;;;19.20;101332.00;;;;10196186;29;20968;-84
2023/06/22 00:45:46;;;;;;;8.57;6.55;;;;;19.10;101340.00;;;;10201733;29;20229;-77
2023/06/22 00:50:51;;;;;;;9.43;6.97;;;;;19.10;101336.00;;;;10193489;29;20782;-77
2023/06/22 00:55:53;;;;;;;10.07;6.15;;;;;19.20;101334.00;;;;10182009;29;20777;-76
2023/06/22 01:00:55;;;;;;;9.25;6.50;;;;;19.30;101344.00;;;;10195355;29;20296;-77
2023/06/22 01:06:09;;;;;;;8.52;6.78;;;;;19.30;101338.00;;;;10203047;28;20221;-75
2023/06/22 01:11:14;;;;;;;7.90;6.78;;;;;19.30;101344.00;;;;10197179;29;20293;-75
2023/06/22 01:16:23;;;;;;;6.72;5.90;;;;;19.40;101350.00;;;;10209150;29;20548;-75
2023/06/22 01:21:29;;;;;;;6.88;6.28;;;;;19.30;101350.00;;;;10196313;29;20807;-74
2023/06/22 01:26:50;;;;;;;10.15;6.57;;;;;19.30;101333.00;;;;10202517;29;20226;-86
2023/06/22 01:31:54;;;;;;;7.35;6.53;;;;;19.20;101337.00;;;;10206312;28;20240;-81
2023/06/22 01:36:57;;;;;;;9.32;6.88;;;;;19.10;101323.00;;;;10203114;29;20254;-77
2023/06/22 01:42:00;;;;;;;7.05;6.13;;;;;19.00;101316.00;;;;10197575;29;20405;-74
2023/06/22 01:47:02;;;;;;;8.90;6.35;;;;;18.90;101327.00;;;;10202007;29;20443;-75
2023/06/22 01:52:05;;;;;;;7.57;5.63;;;;;18.80;101316.00;;;;10194240;29;20561;-74
2023/06/22 01:57:09;;;;;;;11.88;6.10;;;;;18.70;101321.00;;;;10194597;29;20586;-75
2023/06/22 02:02:13;;;;;;;8.00;6.07;;;;;18.50;101321.00;;;;10190705;29;20254;-77
2023/06/22 02:07:18;;;;;;;7.07;6.05;;;;;18.40;101328.00;;;;10193912;29;20213;-75
2023/06/22 02:12:24;;;;;;;8.05;6.80;;;;;18.20;101323.00;;;;10181602;29;20656;-76
2023/06/22 02:17:26;;;;;;;9.55;6.63;;;;;18.10;101325.00;;;;10208497;28;20212;-74
2023/06/22 02:22:28;;;;;;;11.85;7.07;;;;;18.10;101321.00;;;;10164701;29;20554;-74
2023/06/22 02:27:30;;;;;;;8.90;6.97;;;;;18.00;101311.00;;;;10203591;29;20581;-83
2023/06/22 02:32:34;;;;;;;6.93;6.22;;;;;17.90;101305.00;;;;10190844;29;20195;-75
2023/06/22 02:37:41;;;;;;;12.30;6.97;;;;;17.90;101295.00;;;;10200408;29;20194;-74
2023/06/22 02:42:44;;;;;;;8.93;6.55;;;;;17.80;101301.00;;;;10204536;29;20222;-75
2023/06/22 02:47:47;;;;;;;7.40;6.47;;;;;17.70;101281.00;;;;10200564;29;20891;-74
2023/06/22 02:52:50;;;;;;;8.02;6.05;;;;;17.60;101288.00;;;;10186336;29;20297;-76
2023/06/22 02:57:52;;;;;;;11.90;7.05;;;;;17.50;101284.00;;;;10200797;29;20542;-76
2023/06/22 03:02:55;;;;;;;10.50;7.22;;;;;17.40;101275.00;;;;10200441;28;20532;-77
2023/06/22 03:07:58;;;;;;;10.93;6.70;;;;;17.40;101272.00;;;;10200403;29;20392;-75
2023/06/22 03:13:01;;;;;;;9.20;7.10;;;;;17.30;101268.00;;;;10201532;29;20210;-76
2023/06/22 03:18:03;;;;;;;9.63;6.82;;;;;17.20;101255.00;;;;10205841;29;20244;-84
2023/06/22 03:23:05;;;;;;;9.23;6.95;;;;;17.20;101257.00;;;;10198397;29;20226;-74
2023/06/22 03:28:07;;;;;;;7.45;5.97;;;;;17.20;101267.00;;;;10200155;29;20233;-76
2023/06/22 03:33:10;;;;;;;14.50;7.32;;;;;17.10;101261.00;;;;10198277;29;20221;-73
2023/06/22 03:38:12;;;;;;;9.52;6.45;;;;;17.20;101252.00;;;;10207967;29;20265;-73
2023/06/22 03:43:14;;;;;;;9.25;7.32;;;;;17.20;101254.00;;;;10199041;29;20702;-82
2023/06/22 03:48:16;;;;;;;10.73;7.15;;;;;17.40;101250.00;;;;10200204;29;21061;-74
2023/06/22 03:53:18;;;;;;;12.73;7.95;;;;;17.50;101256.00;;;;10198896;29;20206;-75
2023/06/22 03:58:21;;;;;;;12.13;8.32;;;;;17.70;101255.00;;;;10196915;29;20635;-76
2023/06/22 04:03:23;;;;;;;11.77;8.27;;;;;17.80;101263.00;;;;10208273;28;20250;-73
2023/06/22 04:08:25;;;;;;;10.80;8.02;;;;;18.00;101253.00;;;;10193356;29;20335;-74
2023/06/22 04:13:27;;;;;;;11.32;8.45;;;;;18.10;101256.00;;;;10196087;29;20202;-74
2023/06/22 04:18:29;;;;;;;9.75;7.93;;;;;18.30;101253.00;;;;10200572;29;20335;-81
2023/06/22 04:23:32;;;;;;;11.43;8.75;;;;;18.40;101259.00;;;;10198725;29;20269;-82
2023/06/22 04:28:35;;;;;;;12.32;8.10;;;;;18.50;101256.00;;;;10196390;29;20289;-73
2023/06/22 04:33:37;;;;;;;13.43;8.18;;;;;18.60;101258.00;;;;10194381;29;20210;-73
2023/06/22 04:38:40;;;;;;;10.88;9.50;;;;;18.80;101261.00;;;;10205430;29;20210;-74
2023/06/22 04:43:42;;;;;;;11.23;7.93;;;;;18.90;101261.00;;;;10201490;29;20760;-73
2023/06/22 04:48:44;;;;;;;10.48;8.80;;;;;19.10;101260.00;;;;10191460;29;20644;-74
2023/06/22 04:53:46;;;;;;;11.13;8.10;;;;;19.30;101251.00;;;;10201688;29;20614;-72
2023/06/22 04:58:48;;;;;;;9.98;8.85;;;;;19.60;101250.00;;;;10206325;29;20573;-72
2023/06/22 05:03:55;;;;;;;13.07;9.63;;;;;19.90;101260.00;;;;10196667;29;20222;-76
2023/06/22 05:08:57;;;;;;;11.82;10.55;;;;;19.90;101268.00;;;;10197409;29;20294;-76
2023/06/22 05:13:59;;;;;;;11.85;10.65;;;;;19.90;101267.00;;;;10193016;29;20214;-77
2023/06/22 05:19:03;;;;;;;13.15;10.45;;;;;19.80;101267.00;;;;10186000;29;20210;-76
2023/06/22 05:24:05;;;;;;;12.88;10.13;;;;;19.70;101261.00;;;;10195106;29;20218;-75
2023/06/22 05:29:07;;;;;;;17.55;11.27;;;;;19.70;101259.00;;;;10191911;29;20234;-76
2023/06/22 05:34:09;;;;;;;12.93;10.60;;;;;19.50;101267.00;;;;10196135;28;20206;-75
2023/06/22 05:39:16;;;;;;;12.75;10.50;;;;;19.40;101263.00;;;;10207734;29;20665;-74
2023/06/22 05:44:18;;;;;;;17.38;11.18;;;;;19.40;101263.00;;;;10203647;29;20222;-75
2023/06/22 05:49:22;;;;;;;15.57;9.95;;;;;19.40;101259.00;;;;10206469;29;20199;-75
2023/06/22 05:54:24;;;;;;;13.50;11.80;;;;;19.70;101259.00;;;;10190486;29;20685;-76
2023/06/22 05:59:26;;;;;;;15.13;12.27;;;;;19.90;101250.00;;;;10181668;29;20289;-75
2023/06/22 06:04:28;;;;;;;14.60;11.40;;;;;20.00;101243.00;;;;10206336;29;20304;-76
2023/06/22 06:09:30;;;;;;;14.68;12.48;;;;;20.10;101249.00;;;;10207088;28;20206;-77
2023/06/22 06:14:32;;;;;;;15.25;13.05;;;;;20.20;101231.00;;;;10205394;28;20786;-78
2023/06/22 06:19:34;;;;;;;15.90;12.88;;;;;20.50;101219.00;;;;10191537;29;20234;-76
2023/06/22 06:24:36;;;;;;;16.20;13.30;;;;;20.70;101196.00;;;;10210498;29;20218;-77
2023/06/22 06:29:38;;;;;;;17.88;13.68;;;;;21.00;101191.00;;;;10213205;29;20637;-77
2023/06/22 06:34:40;;;;;;;20.83;13.30;;;;;21.40;101177.00;;;;10191303;29;20259;-77
2023/06/22 06:39:42;;;;;;;14.98;13.38;;;;;21.80;101167.00;;;;10199967;29;20294;-77
2023/06/22 06:44:46;;;;;;;15.10;13.15;;;;;22.10;101165.00;;;;10207490;29;20235;-78
2023/06/22 06:49:48;;;;;;;14.82;12.98;;;;;22.30;101168.00;;;;10203910;29;20198;-77
2023/06/22 06:54:51;;;;;;;15.88;13.30;;;;;22.40;101165.00;;;;10194457;29;20210;-77
2023/06/22 06:59:55;;;;;;;17.67;14.38;;;;;22.30;101151.00;;;;10210734;29;20222;-78
2023/06/22 07:04:57;;;;;;;18.25;14.45;;;;;22.20;101148.00;;;;10198316;29;20227;-77
2023/06/22 07:09:59;;;;;;;18.30;15.23;;;;;22.20;101145.00;;;;10205111;29;20206;-76
2023/06/22 07:15:04;;;;;;;19.98;16.25;;;;;22.30;101133.00;;;;10198120;29;20210;-77
2023/06/22 07:20:11;;;;;;;19.25;16.13;;;;;22.40;101123.00;;;;10203361;29;20265;-77
2023/06/22 07:25:14;;;;;;;17.90;15.45;;;;;22.60;101117.00;;;;10207759;29;20752;-80
2023/06/22 07:30:17;;;;;;;17.02;15.18;;;;;22.80;101102.00;;;;10205320;29;20575;-81
2023/06/22 07:35:19;;;;;;;16.30;14.63;;;;;23.10;101100.00;;;;10202531;28;20292;-77
2023/06/22 07:40:22;;;;;;;16.38;14.48;;;;;23.30;101099.00;;;;10203575;29;20687;-79
2023/06/22 07:45:24;;;;;;;18.60;14.93;;;;;23.30;101099.00;;;;10202648;29;20230;-78
2023/06/22 07:50:26;;;;;;;17.33;15.48;;;;;23.20;101096.00;;;;10196920;29;20521;-77
2023/06/22 07:55:29;;;;;;;17.33;15.63;;;;;23.10;101094.00;;;;10191733;29;20214;-76
2023/06/22 08:00:33;;;;;;;17.83;15.93;;;;;22.80;101090.00;;;;10173957;29;20212;-76
2023/06/22 08:05:35;;;;;;;18.02;15.77;;;;;22.60;101091.00;;;;10175963;29;20712;-77
2023/06/22 08:10:38;;;;;;;16.98;15.10;;;;;22.40;101091.00;;;;10178772;29;20288;-77
2023/06/22 08:15:40;;;;;;;16.08;14.43;;;;;22.20;101104.00;;;;10190636;29;20202;-81
2023/06/22 08:20:42;;;;;;;16.38;14.77;;;;;21.90;101109.00;;;;10207539;28;20198;-82
2023/06/22 08:25:45;;;;;;;17.58;15.52;;;;;21.70;101105.00;;;;10208510;29;20763;-81
2023/06/22 08:30:47;;;;;;;16.75;15.13;;;;;21.60;101105.00;;;;10209815;29;20785;-75
2023/06/22 08:35:50;;;;;;;17.95;16.05;;;;;21.40;101102.00;;;;10205307;29;20240;-75
2023/06/22 08:40:52;;;;;;;18.95;15.35;;;;;21.50;101093.00;;;;10205107;29;20229;-75
2023/06/22 08:45:54;;;;;;;18.33;14.95;;;;;21.50;101092.00;;;;10188486;29;20257;-76
2023/06/22 08:50:56;;;;;;;16.83;15.15;;;;;21.40;101088.00;;;;10176969;29;20202;-76
2023/06/22 08:55:59;;;;;;;14.57;13.18;;;;;21.20;101092.00;;;;10179308;28;20294;-75
2023/06/22 09:01:02;;;;;;;19.35;13.52;;;;;21.10;101103.00;;;;10190335;29;20202;-73
2023/06/22 09:06:04;;;;;;;16.15;13.52;;;;;21.00;101112.00;;;;10194426;29;20780;-74
2023/06/22 09:11:06;;;;;;;16.33;12.25;;;;;21.00;101119.00;;;;10187718;29;20522;-77
2023/06/22 09:16:08;;;;;;;16.77;12.80;;;;;21.00;101129.00;;;;10197397;29;20230;-75
2023/06/22 09:21:10;;;;;;;15.80;12.90;;;;;21.10;101124.00;;;;10191211;29;20206;-77
2023/06/22 09:26:12;;;;;;;14.18;12.77;;;;;21.10;101139.00;;;;10188782;28;20593;-77
2023/06/22 09:31:16;;;;;;;14.95;13.25;;;;;21.10;101152.00;;;;10182423;29;20194;-77
2023/06/22 09:36:18;;;;;;;15.65;14.00;;;;;20.80;101157.00;;;;10206006;29;20218;-77
2023/06/22 09:41:20;;;;;;;21.02;14.98;;;;;20.10;101179.00;;;;10186648;29;20925;-77
2023/06/22 09:46:25;;;;;;;18.35;16.45;;;;;19.70;101186.00;;;;10209845;29;20559;-83
2023/06/22 09:51:27;;;;;;;18.85;16.83;;;;;19.30;101223.00;;;;10364548;23;20213;-83
2023/06/22 09:56:30;;;;;;;26.25;17.20;;;;;19.10;101247.00;;;;10758622;23;20231;-85
2023/06/22 10:01:32;;;;;;;33.28;19.95;;;;;18.90;101265.00;;;;10231271;28;20248;-84
2023/06/22 10:06:34;;;;;;;24.98;18.08;;;;;18.50;101263.00;;;;10243162;28;20217;-83
2023/06/22 10:11:36;;;;;;;23.25;16.90;;;;;18.20;101270.00;;;;10206724;28;20272;-83
2023/06/22 10:16:40;;;;;;;23.02;17.05;;;;;17.90;101258.00;;;;10243500;28;20257;-74
2023/06/22 10:21:43;;;;;;;22.67;18.77;;;;;17.80;101244.00;;;;10231405;28;20202;-75
2023/06/22 10:26:45;;;;;;;22.42;19.20;;;;;18.10;101231.00;;;;10235579;28;20658;-80
2023/06/22 10:31:48;;;;;;;24.38;19.05;;;;;18.30;101204.00;;;;10227559;28;20719;-76
2023/06/22 10:36:51;;;;;;;21.90;18.25;;;;;18.70;101169.00;;;;10236740;28;20634;-85
2023/06/22 10:41:55;;;;;;;21.45;19.00;;;;;19.00;101158.00;;;;10218547;28;20292;-81
2023/06/22 10:46:58;;;;;;;28.85;21.63;;;;;19.00;101134.00;;;;10229564;28;20300;-80
2023/06/22 10:52:01;;;;;;;24.63;21.90;;;;;19.00;101126.00;;;;10243787;28;20214;-84
2023/06/22 10:57:05;;;;;;;28.02;23.27;;;;;19.10;101108.00;;;;10279478;23;20218;-92
2023/06/22 11:15:41;;;;;;;31.33;26.85;;;;;19.20;101051.00;;;;10272032;23;20245;-77
2023/06/22 11:20:43;;;;;;;34.17;27.75;;;;;19.50;101046.00;;;;10133455;28;20318;-77
2023/06/22 11:25:46;;;;;;;32.80;27.95;;;;;19.80;101045.00;;;;10153847;28;20496;-75
2023/06/22 11:30:49;;;;;;;29.25;25.08;;;;;19.70;101044.00;;;;10169753;28;20216;-76
2023/06/22 11:35:53;;;;;;;35.78;26.27;;;;;19.70;101038.00;;;;10167728;28;20280;-76
2023/06/22 11:40:56;;;;;;;33.08;26.92;;;;;19.60;101044.00;;;;10166622;28;20224;-75
2023/06/22 11:46:02;;;;;;;31.40;25.15;;;;;19.40;101041.00;;;;10162147;28;20236;-76
2023/06/22 11:51:06;;;;;;;27.15;24.25;;;;;19.10;101048.00;;;;10170884;28;20299;-76
2023/06/22 11:56:09;;;;;;;27.42;24.52;;;;;18.90;101061.00;;;;10150014;28;20213;-75
2023/06/22 12:01:15;;;;;;;31.45;24.67;;;;;18.70;101053.00;;;;10162338;28;21724;-77
2023/06/22 12:06:21;;;;;;;29.20;25.77;;;;;18.60;101044.00;;;;10186508;28;20311;-74
2023/06/22 12:11:24;;;;;;;29.95;26.75;;;;;18.60;101052.00;;;;10197458;28;20224;-74
2023/06/22 12:16:30;;;;;;;33.60;28.05;;;;;18.70;101046.00;;;;10156408;28;20452;-77
2023/06/22 12:21:33;;;;;;;31.67;27.10;;;;;18.70;101031.00;;;;10152539;28;22298;-76
2023/06/22 12:26:35;;;;;;;33.05;27.17;;;;;18.60;101025.00;;;;10167434;28;21082;-76
2023/06/22 12:31:46;;;;;;;31.98;28.27;;;;;18.40;101013.00;;;;10486582;27;22045;-75
2023/06/22 12:36:49;;;;;;;35.05;29.40;;;;;18.30;101016.00;;;;10481507;27;20211;-75
2023/06/22 12:41:50;;;;;;;35.45;30.38;;;;;18.30;101011.00;;;;10505056;27;20428;-76
2023/06/22 12:46:52;;;;;;;39.35;31.73;;;;;18.30;101013.00;;;;10507525;27;20195;-75
2023/06/22 12:51:53;;;;;;;43.10;35.00;;;;;18.30;101001.00;;;;10482157;27;21423;-76
2023/06/22 12:56:55;;;;;;;39.67;33.78;;;;;18.30;100997.00;;;;10507530;27;20767;-76
2023/06/22 13:01:57;;;;;;;42.63;34.78;;;;;18.20;100991.00;;;;10518838;27;20207;-75
2023/06/22 13:06:58;;;;;;;41.30;34.35;;;;;18.10;100991.00;;;;10525283;27;20199;-76
2023/06/22 13:11:59;;;;;;;38.38;32.75;;;;;18.10;100985.00;;;;10500973;27;20228;-74
2023/06/22 13:17:00;;;;;;;46.25;35.58;;;;;18.10;100980.00;;;;10443337;27;20212;-75
2023/06/22 13:22:03;;;;;;;38.35;33.30;;;;;18.10;100968.00;;;;10461351;27;20204;-75
2023/06/22 13:27:05;;;;;;;35.70;31.00;;;;;18.00;100983.00;;;;10470205;27;20222;-75
2023/06/22 13:32:06;;;;;;;32.90;27.23;;;;;17.90;100989.00;;;;10477263;27;21022;-76
2023/06/22 13:37:08;;;;;;;31.52;28.13;;;;;17.90;100990.00;;;;10495762;27;20211;-74
2023/06/22 13:42:09;;;;;;;28.88;23.70;;;;;17.80;100985.00;;;;10478144;27;22375;-74
2023/06/22 13:47:10;;;;;;;36.88;30.45;;;;;17.80;100987.00;;;;10467744;27;20220;-76
2023/06/22 13:52:12;;;;;;;33.03;29.58;;;;;17.90;100975.00;;;;10452839;27;20200;-76
2023/06/22 13:57:14;;;;;;;35.67;28.67;;;;;17.80;100964.00;;;;10470435;27;21374;-75
2023/06/22 14:02:15;;;;;;;33.47;29.80;;;;;17.80;100974.00;;;;10454060;27;20267;-73
2023/06/22 14:07:19;;;;;;;37.60;31.05;;;;;17.70;100971.00;;;;10433107;27;20224;-75
2023/06/22 14:12:20;;;;;;;36.45;31.52;;;;;17.60;100974.00;;;;10425858;27;20323;-75
2023/06/22 14:17:25;;;;;;;28.65;24.00;;;;;17.60;100963.00;;;;10471871;27;20287;-76
2023/06/22 14:22:29;;;;;;;31.60;24.98;;;;;17.60;100964.00;;;;10465836;27;20240;-76
2023/06/22 14:27:30;;;;;;;37.85;32.63;;;;;17.60;100963.00;;;;10448508;27;20396;-76
2023/06/22 14:32:31;;;;;;;34.38;28.63;;;;;17.70;100952.00;;;;10468731;27;20211;-75
2023/06/22 14:37:32;;;;;;;33.08;27.48;;;;;17.70;100956.00;;;;10433845;27;20203;-76
2023/06/22 14:42:34;;;;;;;43.25;35.08;;;;;17.80;100951.00;;;;10412396;27;20838;-74
2023/06/22 14:47:35;;;;;;;35.08;28.58;;;;;17.80;100958.00;;;;10436867;27;20270;-75
2023/06/22 14:52:36;;;;;;;38.22;32.50;;;;;17.90;100969.00;;;;10446773;27;20205;-76
2023/06/22 14:57:38;;;;;;;39.47;33.20;;;;;18.00;100966.00;;;;10447222;27;20239;-75
2023/06/22 15:02:40;;;;;;;45.58;36.95;;;;;18.10;100960.00;;;;10469611;27;20875;-75
2023/06/22 15:07:42;;;;;;;39.50;35.22;;;;;18.10;100968.00;;;;10472482;27;20227;-75
2023/06/22 15:12:43;;;;;;;43.20;37.83;;;;;18.30;100972.00;;;;10469020;27;21158;-75
2023/06/22 15:17:44;;;;;;;41.92;34.50;;;;;18.40;100974.00;;;;10466275;27;20785;-75
2023/06/22 15:22:46;;;;;;;41.00;33.42;;;;;18.40;100981.00;;;;10456356;27;21507;-76
2023/06/22 15:27:47;;;;;;;43.15;36.03;;;;;18.40;100973.00;;;;10469768;27;20771;-76
2023/06/22 15:32:49;;;;;;;42.38;37.72;;;;;18.50;100977.00;;;;10470738;27;21688;-76
2023/06/22 15:37:51;;;;;;;46.65;39.03;;;;;18.60;100986.00;;;;10435342;27;20287;-76
2023/06/22 15:42:52;;;;;;;47.45;38.67;;;;;18.60;100988.00;;;;10449904;27;20221;-76
2023/06/22 15:47:55;;;;;;;44.88;38.78;;;;;18.70;100983.00;;;;10468965;27;20228;-76
2023/06/22 15:52:56;;;;;;;43.67;38.97;;;;;18.70;100994.00;;;;10444137;27;21544;-75
2023/06/22 15:57:58;;;;;;;46.63;40.97;;;;;18.70;100993.00;;;;10444009;27;20701;-76
2023/06/22 16:02:59;;;;;;;45.25;40.28;;;;;18.70;100985.00;;;;10443468;27;20212;-76
2023/06/22 16:08:01;;;;;;;45.90;40.50;;;;;18.80;100985.00;;;;10440928;27;20274;-75
2023/06/22 16:13:03;;;;;;;50.50;43.13;;;;;18.80;100994.00;;;;10445877;27;20296;-75
2023/06/22 16:18:04;;;;;;;48.95;42.05;;;;;18.80;100980.00;;;;10436571;27;20208;-76
2023/06/22 16:23:06;;;;;;;50.13;40.65;;;;;18.70;100986.00;;;;10435905;27;20204;-75
2023/06/22 16:28:07;;;;;;;41.08;36.03;;;;;18.70;100987.00;;;;10417012;27;20420;-76
2023/06/22 16:33:08;;;;;;;46.55;39.78;;;;;18.80;100998.00;;;;10437514;27;20215;-76
2023/06/22 16:38:10;;;;;;;49.88;42.78;;;;;18.90;101002.00;;;;10417023;27;21715;-75
2023/06/22 16:43:11;;;;;;;58.72;47.53;;;;;18.90;101015.00;;;;10430115;27;20196;-76
2023/06/22 16:48:13;;;;;;;53.10;47.40;;;;;18.70;101023.00;;;;10419770;27;20323;-76
2023/06/22 16:53:17;;;;;;;54.08;46.15;;;;;18.50;101034.00;;;;10433725;27;20920;-76
2023/06/22 16:58:23;;;;;;;61.38;50.95;;;;;18.40;101038.00;;;;10401546;27;20205;-76
2023/06/22 17:03:29;;;;;;;55.70;47.65;;;;;18.40;101049.00;;;;10436438;27;21571;-76
2023/06/22 17:08:34;;;;;;;60.63;49.58;;;;;18.40;101063.00;;;;10415508;27;20399;-75
2023/06/22 17:13:35;;;;;;;54.58;46.55;;;;;18.50;101074.00;;;;10416581;27;20940;-76
2023/06/22 17:18:39;;;;;;;58.30;46.63;;;;;18.70;101079.00;;;;10441840;27;20320;-76
2023/06/22 17:23:41;;;;;;;55.88;45.38;;;;;18.80;101089.00;;;;10440537;27;20286;-75
2023/06/22 17:28:50;;;;;;;47.35;41.55;;;;;18.80;101083.00;;;;10441991;27;20680;-76
2023/06/22 17:33:52;;;;;;;53.05;45.28;;;;;18.80;101096.00;;;;10421520;27;20201;-76
2023/06/22 17:38:59;;;;;;;53.20;43.40;;;;;18.80;101096.00;;;;10421990;27;20310;-76
2023/06/22 17:44:03;;;;;;;52.10;43.08;;;;;18.90;101104.00;;;;10437178;27;20224;-76
2023/06/22 17:49:17;;;;;;;47.80;40.70;;;;;18.90;101112.00;;;;10438589;27;20224;-76
2023/06/22 17:54:19;;;;;;;54.13;42.45;;;;;19.00;101111.00;;;;10440623;27;20213;-76
2023/06/22 17:59:32;;;;;;;52.30;42.05;;;;;19.00;101112.00;;;;10422216;27;20607;-76
2023/06/22 18:04:33;;;;;;;48.33;37.80;;;;;19.10;101112.00;;;;10437745;27;20209;-76
2023/06/22 18:09:35;;;;;;;50.60;42.78;;;;;19.10;101125.00;;;;10439763;27;20299;-75
2023/06/22 18:14:37;;;;;;;53.50;42.95;;;;;19.10;101121.00;;;;10440130;27;20212;-76
2023/06/22 18:19:39;;;;;;;54.22;40.13;;;;;19.10;101129.00;;;;10420707;27;21531;-75
2023/06/22 18:24:42;;;;;;;54.05;43.13;;;;;19.10;101145.00;;;;10420490;27;20754;-75
2023/06/22 18:29:47;;;;;;;50.92;43.10;;;;;19.10;101143.00;;;;10440063;27;20215;-76
2023/06/22 18:34:51;;;;;;;56.92;45.38;;;;;19.20;101154.00;;;;10438948;27;20453;-75
2023/06/22 18:39:54;;;;;;;52.13;44.10;;;;;19.10;101144.00;;;;10438772;27;20625;-76
2023/06/22 18:44:56;;;;;;;52.60;41.75;;;;;19.10;101151.00;;;;10419445;27;20505;-75
2023/06/22 18:50:06;;;;;;;52.47;42.80;;;;;19.10;101159.00;;;;10421479;27;20215;-76
2023/06/22 18:55:11;;;;;;;47.05;40.85;;;;;18.90;101169.00;;;;10438567;27;20756;-75
2023/06/22 19:00:14;;;;;;;53.25;41.55;;;;;18.80;101166.00;;;;10439532;27;20809;-76
2023/06/22 19:05:19;;;;;;;58.72;42.97;;;;;18.80;101169.00;;;;10421273;27;20565;-76
2023/06/22 19:10:30;;;;;;;53.25;41.50;;;;;18.70;101168.00;;;;10440122;27;20720;-75
2023/06/22 19:15:35;;;;;;;51.70;41.22;;;;;18.60;101175.00;;;;10418346;27;20484;-76
2023/06/22 19:20:38;;;;;;;46.90;39.03;;;;;18.60;101171.00;;;;10420693;27;21833;-75
2023/06/22 19:25:45;;;;;;;48.47;39.67;;;;;18.50;101176.00;;;;10402939;28;20297;-76
2023/06/22 19:30:47;;;;;;;50.22;39.88;;;;;18.40;101175.00;;;;10418939;27;20212;-76
2023/06/22 19:35:50;;;;;;;57.45;41.53;;;;;18.40;101183.00;;;;10419147;27;20261;-75
2023/06/22 19:40:52;;;;;;;56.20;39.95;;;;;18.30;101187.00;;;;10415325;27;20235;-77
2023/06/22 19:45:53;;;;;;;55.75;38.58;;;;;18.20;101193.00;;;;10401062;27;20208;-75
2023/06/22 19:51:01;;;;;;;49.70;38.53;;;;;18.20;101199.00;;;;10436113;27;20255;-74
2023/06/22 19:56:04;;;;;;;45.17;38.13;;;;;18.10;101214.00;;;;10433921;27;20208;-76
2023/06/22 20:01:05;;;;;;;58.03;43.97;;;;;18.00;101222.00;;;;10432446;27;21254;-76
2023/06/22 20:06:15;;;;;;;66.10;49.85;;;;;18.00;101226.00;;;;10416025;27;21613;-75
2023/06/22 20:11:26;;;;;;;75.25;55.08;;;;;17.90;101221.00;;;;10436931;27;20235;-76
2023/06/22 20:16:28;;;;;;;87.45;61.17;;;;;17.90;101235.00;;;;10413509;27;20220;-75
2023/06/22 20:21:31;;;;;;;95.13;67.63;;;;;17.90;101234.00;;;;10417471;27;20204;-76
2023/06/22 20:26:51;;;;;;;108.07;74.20;;;;;17.90;101245.00;;;;10435059;27;20273;-76
2023/06/22 20:32:06;;;;;;;120.18;80.47;;;;;17.90;101248.00;;;;10417144;27;21810;-75
2023/06/22 20:37:08;;;;;;;127.95;79.53;;;;;17.90;101239.00;;;;10435909;27;21534;-75
2023/06/22 20:42:11;;;;;;;138.00;89.10;;;;;17.90;101246.00;;;;10415412;27;21400;-76
2023/06/22 20:47:13;;;;;;;126.07;82.18;;;;;17.90;101257.00;;;;10418724;27;20296;-77
2023/06/22 20:52:17;;;;;;;115.43;76.45;;;;;17.80;101257.00;;;;10440687;27;20604;-75
2023/06/22 20:57:19;;;;;;;116.47;77.65;;;;;17.80;101275.00;;;;10420866;27;21215;-75
2023/06/22 21:02:20;;;;;;;117.82;78.32;;;;;17.70;101269.00;;;;10442729;27;20215;-75
2023/06/22 21:07:22;;;;;;;114.63;77.10;;;;;17.60;101267.00;;;;10440846;27;20231;-76
2023/06/22 21:12:23;;;;;;;103.07;71.10;;;;;17.50;101267.00;;;;10441089;27;20887;-76
2023/06/22 21:17:25;;;;;;;103.53;70.68;;;;;17.40;101266.00;;;;10442723;27;20342;-76
2023/06/22 21:22:31;;;;;;;120.85;70.82;;;;;17.40;101272.00;;;;10435503;27;20629;-76
2023/06/22 21:27:33;;;;;;;100.38;69.15;;;;;17.30;101274.00;;;;10441203;27;20249;-76
2023/06/22 21:32:34;;;;;;;103.07;67.25;;;;;17.20;101284.00;;;;10438655;27;20196;-75
2023/06/22 21:37:36;;;;;;;109.90;70.90;;;;;17.10;101296.00;;;;10422589;27;20208;-75
2023/06/22 21:42:38;;;;;;;117.82;68.07;;;;;17.00;101308.00;;;;10441233;27;20204;-75
2023/06/22 21:47:39;;;;;;;125.18;72.72;;;;;16.90;101313.00;;;;10437406;27;20228;-76
2023/06/22 21:52:40;;;;;;;111.60;69.43;;;;;16.90;101310.00;;;;10440102;27;20306;-74
2023/06/22 21:57:42;;;;;;;118.43;71.97;;;;;16.80;101310.00;;;;10439285;27;20999;-76
2023/06/22 22:02:43;;;;;;;118.45;69.82;;;;;16.80;101318.00;;;;10419573;27;20207;-76
2023/06/22 22:07:45;;;;;;;119.38;70.97;;;;;16.70;101327.00;;;;10423324;27;20212;-76
2023/06/22 22:12:49;;;;;;;129.13;73.75;;;;;16.70;101346.00;;;;10419852;27;20769;-76
2023/06/22 22:17:51;;;;;;;131.32;72.63;;;;;16.60;101348.00;;;;10439789;27;20885;-76
2023/06/22 22:22:52;;;;;;;127.75;70.22;;;;;16.50;101351.00;;;;10421376;27;20200;-75
2023/06/22 22:27:54;;;;;;;138.65;74.38;;;;;16.40;101347.00;;;;10438681;27;20231;-74
2023/06/22 22:32:55;;;;;;;127.38;69.85;;;;;16.40;101369.00;;;;10439161;27;20203;-76
2023/06/22 22:37:57;;;;;;;133.93;71.60;;;;;16.30;101377.00;;;;10439259;27;20200;-75
2023/06/22 22:42:58;;;;;;;135.43;71.00;;;;;16.30;101387.00;;;;10437434;27;20205;-76
2023/06/22 22:48:00;;;;;;;122.55;68.80;;;;;16.20;101400.00;;;;10437543;27;20221;-75
2023/06/22 22:53:03;;;;;;;130.18;69.47;;;;;16.20;101404.00;;;;10436632;27;20211;-76
2023/06/22 22:58:05;;;;;;;112.55;64.38;;;;;16.10;101422.00;;;;10436809;27;20227;-76
2023/06/22 23:03:07;;;;;;;115.13;63.33;;;;;16.10;101414.00;;;;10416447;27;20208;-75
2023/06/22 23:08:08;;;;;;;106.63;61.10;;;;;16.00;101405.00;;;;10436094;27;20223;-76
2023/06/22 23:13:09;;;;;;;111.40;60.80;;;;;16.00;101405.00;;;;10437633;27;20592;-76
2023/06/22 23:18:11;;;;;;;105.82;59.83;;;;;15.90;101411.00;;;;10436131;27;20532;-76
2023/06/22 23:23:13;;;;;;;95.47;55.85;;;;;15.80;101410.00;;;;10404706;27;20221;-74
2023/06/22 23:28:16;;;;;;;94.43;55.72;;;;;15.80;101404.00;;;;10435476;27;20228;-76
2023/06/22 23:33:40;;;;;;;91.00;55.03;;;;;15.70;101400.00;;;;10419887;27;20200;-76
2023/06/22 23:38:41;;;;;;;99.65;53.58;;;;;15.60;101415.00;;;;10418899;27;20259;-74
2023/06/22 23:43:43;;;;;;;92.80;53.15;;;;;15.50;101416.00;;;;10417513;27;20196;-75
2023/06/22 23:48:44;;;;;;;92.50;53.13;;;;;15.50;101414.00;;;;10418994;27;20223;-76
2023/06/22 23:53:46;;;;;;;98.55;55.88;;;;;15.50;101424.00;;;;10436093;27;20292;-76
2023/06/22 23:58:51;;;;;;;96.18;53.65;;;;;15.40;101433.00;;;;10418649;27;20212;-75
